sensor_id;sensor_type;location;lat;lon;timestamp;pressure;altitude;pressure_sealevel;temperature
69590;BMP180;56792;50.644;17.984;2023-01-29T00:02:04;100777.00;;;20.60
69590;BMP180;56792;50.644;17.984;2023-01-29T00:04:37;100780.60;;;20.60
69590;BMP180;56792;50.644;17.984;2023-01-29T00:07:10;100780.00;;;20.60
69590;BMP180;56792;50.644;17.984;2023-01-29T00:09:43;100780.00;;;20.60
69590;BMP180;56792;50.644;17.984;2023-01-29T00:12:16;100781.00;;;20.60
69590;BMP180;56792;50.644;17.984;2023-01-29T00:14:48;100786.80;;;20.60
69590;BMP180;56792;50.644;17.984;2023-01-29T00:17:21;100789.80;;;20.60
69590;BMP180;56792;50.644;17.984;2023-01-29T00:19:54;100790.60;;;20.68
69590;BMP180;56792;50.644;17.984;2023-01-29T00:22:28;100782.80;;;20.60
69590;BMP180;56792;50.644;17.984;2023-01-29T00:25:01;100779.80;;;20.62
69590;BMP180;56792;50.644;17.984;2023-01-29T00:27:34;100790.40;;;20.64
69590;BMP180;56792;50.644;17.984;2023-01-29T00:30:11;100794.80;;;20.60
69590;BMP180;56792;50.644;17.984;2023-01-29T00:32:46;100798.60;;;20.64
69590;BMP180;56792;50.644;17.984;2023-01-29T00:35:18;100793.80;;;20.60
69590;BMP180;56792;50.644;17.984;2023-01-29T00:37:50;100794.40;;;20.60
69590;BMP180;56792;50.644;17.984;2023-01-29T00:40:23;100796.20;;;20.60
69590;BMP180;56792;50.644;17.984;2023-01-29T00:42:56;100791.20;;;20.60
69590;BMP180;56792;50.644;17.984;2023-01-29T00:45:54;100789.20;;;20.60
69590;BMP180;56792;50.644;17.984;2023-01-29T00:48:26;100795.00;;;20.70
69590;BMP180;56792;50.644;17.984;2023-01-29T00:50:58;100793.60;;;20.68
69590;BMP180;56792;50.644;17.984;2023-01-29T00:53:31;100785.00;;;20.60
69590;BMP180;56792;50.644;17.984;2023-01-29T00:56:03;100776.80;;;20.60
69590;BMP180;56792;50.644;17.984;2023-01-29T00:58:36;100771.00;;;20.60
69590;BMP180;56792;50.644;17.984;2023-01-29T01:01:08;100768.80;;;20.60
69590;BMP180;56792;50.644;17.984;2023-01-29T01:03:40;100770.80;;;20.60
69590;BMP180;56792;50.644;17.984;2023-01-29T01:06:16;100768.60;;;20.60
69590;BMP180;56792;50.644;17.984;2023-01-29T01:08:48;100759.40;;;20.60
69590;BMP180;56792;50.644;17.984;2023-01-29T01:11:38;100762.40;;;20.60
69590;BMP180;56792;50.644;17.984;2023-01-29T01:14:10;100757.80;;;20.60
69590;BMP180;56792;50.644;17.984;2023-01-29T01:16:42;100753.80;;;20.60
69590;BMP180;56792;50.644;17.984;2023-01-29T01:19:16;100749.20;;;20.60
69590;BMP180;56792;50.644;17.984;2023-01-29T01:21:49;100752.00;;;20.54
69590;BMP180;56792;50.644;17.984;2023-01-29T01:24:21;100742.40;;;20.58
69590;BMP180;56792;50.644;17.984;2023-01-29T01:26:53;100739.00;;;20.56
69590;BMP180;56792;50.644;17.984;2023-01-29T01:29:26;100741.60;;;20.50
69590;BMP180;56792;50.644;17.984;2023-01-29T01:31:58;100729.00;;;20.50
69590;BMP180;56792;50.644;17.984;2023-01-29T01:34:30;100723.60;;;20.50
69590;BMP180;56792;50.644;17.984;2023-01-29T01:37:03;100723.60;;;20.50
69590;BMP180;56792;50.644;17.984;2023-01-29T01:39:35;100732.40;;;20.50
69590;BMP180;56792;50.644;17.984;2023-01-29T01:42:12;100737.60;;;20.50
69590;BMP180;56792;50.644;17.984;2023-01-29T01:44:59;100739.00;;;20.50
69590;BMP180;56792;50.644;17.984;2023-01-29T01:47:41;100739.20;;;20.50
69590;BMP180;56792;50.644;17.984;2023-01-29T01:50:19;100732.00;;;20.50
69590;BMP180;56792;50.644;17.984;2023-01-29T01:52:58;100725.80;;;20.50
69590;BMP180;56792;50.644;17.984;2023-01-29T01:55:33;100710.80;;;20.50
69590;BMP180;56792;50.644;17.984;2023-01-29T01:58:11;100718.20;;;20.50
69590;BMP180;56792;50.644;17.984;2023-01-29T02:00:45;100724.80;;;20.50
69590;BMP180;56792;50.644;17.984;2023-01-29T02:03:18;100724.40;;;20.50
69590;BMP180;56792;50.644;17.984;2023-01-29T02:06:09;100719.20;;;20.50
69590;BMP180;56792;50.644;17.984;2023-01-29T02:09:07;100728.60;;;20.50
69590;BMP180;56792;50.644;17.984;2023-01-29T02:11:58;100730.20;;;20.50
69590;BMP180;56792;50.644;17.984;2023-01-29T02:14:31;100731.60;;;20.50
69590;BMP180;56792;50.644;17.984;2023-01-29T02:17:11;100737.80;;;20.46
69590;BMP180;56792;50.644;17.984;2023-01-29T02:19:56;100739.00;;;20.46
69590;BMP180;56792;50.644;17.984;2023-01-29T02:23:09;100735.00;;;20.44
69590;BMP180;56792;50.644;17.984;2023-01-29T02:26:18;100733.60;;;20.40
69590;BMP180;56792;50.644;17.984;2023-01-29T02:29:00;100724.20;;;20.40
69590;BMP180;56792;50.644;17.984;2023-01-29T02:31:59;100723.60;;;20.40
69590;BMP180;56792;50.644;17.984;2023-01-29T02:34:44;100724.80;;;20.40
69590;BMP180;56792;50.644;17.984;2023-01-29T02:37:41;100718.80;;;20.40
69590;BMP180;56792;50.644;17.984;2023-01-29T02:40:28;100723.80;;;20.40
69590;BMP180;56792;50.644;17.984;2023-01-29T02:43:09;100723.80;;;20.40
69590;BMP180;56792;50.644;17.984;2023-01-29T02:45:55;100727.00;;;20.40
69590;BMP180;56792;50.644;17.984;2023-01-29T02:48:40;100720.60;;;20.40
69590;BMP180;56792;50.644;17.984;2023-01-29T02:51:23;100725.80;;;20.40
69590;BMP180;56792;50.644;17.984;2023-01-29T02:54:04;100729.80;;;20.40
69590;BMP180;56792;50.644;17.984;2023-01-29T02:56:42;100727.00;;;20.40
69590;BMP180;56792;50.644;17.984;2023-01-29T02:59:22;100731.60;;;20.40
69590;BMP180;56792;50.644;17.984;2023-01-29T03:02:02;100734.40;;;20.40
69590;BMP180;56792;50.644;17.984;2023-01-29T03:04:42;100739.40;;;20.40
69590;BMP180;56792;50.644;17.984;2023-01-29T03:07:24;100746.80;;;20.40
69590;BMP180;56792;50.644;17.984;2023-01-29T03:10:18;100749.40;;;20.40
69590;BMP180;56792;50.644;17.984;2023-01-29T03:12:57;100745.00;;;20.40
69590;BMP180;56792;50.644;17.984;2023-01-29T03:15:39;100745.20;;;20.40
69590;BMP180;56792;50.644;17.984;2023-01-29T03:18:32;100741.60;;;20.40
69590;BMP180;56792;50.644;17.984;2023-01-29T03:21:16;100741.60;;;20.40
69590;BMP180;56792;50.644;17.984;2023-01-29T03:24:11;100734.00;;;20.40
69590;BMP180;56792;50.644;17.984;2023-01-29T03:27:08;100734.80;;;20.40
69590;BMP180;56792;50.644;17.984;2023-01-29T03:29:59;100727.20;;;20.38
69590;BMP180;56792;50.644;17.984;2023-01-29T03:33:11;100725.80;;;20.38
69590;BMP180;56792;50.644;17.984;2023-01-29T03:35:51;100725.20;;;20.38
69590;BMP180;56792;50.644;17.984;2023-01-29T03:38:24;100726.60;;;20.34
69590;BMP180;56792;50.644;17.984;2023-01-29T03:41:02;100726.60;;;20.30
69590;BMP180;56792;50.644;17.984;2023-01-29T03:43:43;100723.60;;;20.32
69590;BMP180;56792;50.644;17.984;2023-01-29T03:46:22;100725.00;;;20.34
69590;BMP180;56792;50.644;17.984;2023-01-29T03:49:04;100715.40;;;20.30
69590;BMP180;56792;50.644;17.984;2023-01-29T03:51:52;100717.40;;;20.30
69590;BMP180;56792;50.644;17.984;2023-01-29T03:54:35;100707.80;;;20.30
69590;BMP180;56792;50.644;17.984;2023-01-29T03:57:19;100711.00;;;20.30
69590;BMP180;56792;50.644;17.984;2023-01-29T04:00:03;100709.00;;;20.30
69590;BMP180;56792;50.644;17.984;2023-01-29T04:03:11;100707.40;;;20.28
69590;BMP180;56792;50.644;17.984;2023-01-29T04:05:50;100703.00;;;20.30
69590;BMP180;56792;50.644;17.984;2023-01-29T04:08:35;100698.40;;;20.24
69590;BMP180;56792;50.644;17.984;2023-01-29T04:11:15;100696.40;;;20.20
69590;BMP180;56792;50.644;17.984;2023-01-29T04:13:49;100692.40;;;20.20
69590;BMP180;56792;50.644;17.984;2023-01-29T04:16:28;100688.80;;;20.20
69590;BMP180;56792;50.644;17.984;2023-01-29T04:19:25;100685.60;;;20.20
69590;BMP180;56792;50.644;17.984;2023-01-29T04:22:08;100680.40;;;20.20
69590;BMP180;56792;50.644;17.984;2023-01-29T04:24:43;100673.20;;;20.20
69590;BMP180;56792;50.644;17.984;2023-01-29T04:27:28;100675.00;;;20.20
69590;BMP180;56792;50.644;17.984;2023-01-29T04:30:28;100671.40;;;20.20
69590;BMP180;56792;50.644;17.984;2023-01-29T04:33:23;100662.80;;;20.20
69590;BMP180;56792;50.644;17.984;2023-01-29T04:36:14;100667.20;;;20.20
69590;BMP180;56792;50.644;17.984;2023-01-29T04:39:05;100668.00;;;20.20
69590;BMP180;56792;50.644;17.984;2023-01-29T04:41:48;100676.60;;;20.20
69590;BMP180;56792;50.644;17.984;2023-01-29T04:44:28;100676.40;;;20.20
69590;BMP180;56792;50.644;17.984;2023-01-29T04:47:15;100683.60;;;20.20
69590;BMP180;56792;50.644;17.984;2023-01-29T04:49:55;100683.40;;;20.20
69590;BMP180;56792;50.644;17.984;2023-01-29T04:52:46;100666.40;;;20.20
69590;BMP180;56792;50.644;17.984;2023-01-29T04:55:28;100654.60;;;20.20
69590;BMP180;56792;50.644;17.984;2023-01-29T04:58:13;100652.80;;;20.20
69590;BMP180;56792;50.644;17.984;2023-01-29T05:00:53;100656.60;;;20.20
69590;BMP180;56792;50.644;17.984;2023-01-29T05:03:27;100658.80;;;20.20
69590;BMP180;56792;50.644;17.984;2023-01-29T05:06:03;100662.00;;;20.20
69590;BMP180;56792;50.644;17.984;2023-01-29T05:08:39;100660.60;;;20.20
69590;BMP180;56792;50.644;17.984;2023-01-29T05:11:12;100654.40;;;20.20
69590;BMP180;56792;50.644;17.984;2023-01-29T05:13:46;100643.80;;;20.20
69590;BMP180;56792;50.644;17.984;2023-01-29T05:16:24;100641.80;;;20.20
69590;BMP180;56792;50.644;17.984;2023-01-29T05:18:58;100641.20;;;20.20
69590;BMP180;56792;50.644;17.984;2023-01-29T05:21:31;100641.60;;;20.20
69590;BMP180;56792;50.644;17.984;2023-01-29T05:24:18;100641.80;;;20.20
69590;BMP180;56792;50.644;17.984;2023-01-29T05:26:52;100643.80;;;20.20
69590;BMP180;56792;50.644;17.984;2023-01-29T05:29:45;100639.60;;;20.20
69590;BMP180;56792;50.644;17.984;2023-01-29T05:32:18;100645.20;;;20.20
69590;BMP180;56792;50.644;17.984;2023-01-29T05:34:50;100646.40;;;20.20
69590;BMP180;56792;50.644;17.984;2023-01-29T05:37:22;100648.00;;;20.20
69590;BMP180;56792;50.644;17.984;2023-01-29T05:39:54;100643.80;;;20.20
69590;BMP180;56792;50.644;17.984;2023-01-29T05:42:26;100647.00;;;20.20
69590;BMP180;56792;50.644;17.984;2023-01-29T05:44:58;100647.60;;;20.20
69590;BMP180;56792;50.644;17.984;2023-01-29T05:47:31;100647.20;;;20.20
69590;BMP180;56792;50.644;17.984;2023-01-29T05:50:03;100642.20;;;20.20
69590;BMP180;56792;50.644;17.984;2023-01-29T05:52:36;100642.00;;;20.20
69590;BMP180;56792;50.644;17.984;2023-01-29T05:55:10;100644.60;;;20.20
69590;BMP180;56792;50.644;17.984;2023-01-29T05:57:43;100646.40;;;20.20
69590;BMP180;56792;50.644;17.984;2023-01-29T06:00:18;100654.00;;;20.20
69590;BMP180;56792;50.644;17.984;2023-01-29T06:02:50;100655.20;;;20.20
69590;BMP180;56792;50.644;17.984;2023-01-29T06:05:22;100654.40;;;20.20
69590;BMP180;56792;50.644;17.984;2023-01-29T06:07:54;100662.60;;;20.20
69590;BMP180;56792;50.644;17.984;2023-01-29T06:10:27;100661.40;;;20.20
69590;BMP180;56792;50.644;17.984;2023-01-29T06:12:59;100664.20;;;20.20
69590;BMP180;56792;50.644;17.984;2023-01-29T06:15:31;100660.80;;;20.20
69590;BMP180;56792;50.644;17.984;2023-01-29T06:18:04;100657.40;;;20.20
69590;BMP180;56792;50.644;17.984;2023-01-29T06:20:37;100664.80;;;20.20
69590;BMP180;56792;50.644;17.984;2023-01-29T06:23:09;100671.60;;;20.20
69590;BMP180;56792;50.644;17.984;2023-01-29T06:25:42;100672.20;;;20.20
69590;BMP180;56792;50.644;17.984;2023-01-29T06:28:14;100678.00;;;20.20
69590;BMP180;56792;50.644;17.984;2023-01-29T06:30:46;100672.80;;;20.20
69590;BMP180;56792;50.644;17.984;2023-01-29T06:33:18;100678.80;;;20.20
69590;BMP180;56792;50.644;17.984;2023-01-29T06:35:50;100680.60;;;20.20
69590;BMP180;56792;50.644;17.984;2023-01-29T06:38:26;100679.00;;;20.20
69590;BMP180;56792;50.644;17.984;2023-01-29T06:41:06;100679.20;;;20.22
69590;BMP180;56792;50.644;17.984;2023-01-29T06:43:39;100674.00;;;20.22
69590;BMP180;56792;50.644;17.984;2023-01-29T06:46:11;100670.80;;;20.22
69590;BMP180;56792;50.644;17.984;2023-01-29T06:48:44;100671.40;;;20.20
69590;BMP180;56792;50.644;17.984;2023-01-29T06:51:16;100671.20;;;20.22
69590;BMP180;56792;50.644;17.984;2023-01-29T06:53:48;100672.40;;;20.24
69590;BMP180;56792;50.644;17.984;2023-01-29T06:56:20;100672.80;;;20.22
69590;BMP180;56792;50.644;17.984;2023-01-29T06:58:53;100670.00;;;20.22
69590;BMP180;56792;50.644;17.984;2023-01-29T07:01:25;100672.00;;;20.28
69590;BMP180;56792;50.644;17.984;2023-01-29T07:03:58;100665.00;;;20.22
69590;BMP180;56792;50.644;17.984;2023-01-29T07:06:33;100665.20;;;20.20
69590;BMP180;56792;50.644;17.984;2023-01-29T07:09:07;100680.60;;;20.20
69590;BMP180;56792;50.644;17.984;2023-01-29T07:11:39;100687.60;;;20.22
69590;BMP180;56792;50.644;17.984;2023-01-29T07:14:12;100695.40;;;20.22
69590;BMP180;56792;50.644;17.984;2023-01-29T07:16:44;100694.80;;;20.20
69590;BMP180;56792;50.644;17.984;2023-01-29T07:19:16;100694.40;;;20.20
69590;BMP180;56792;50.644;17.984;2023-01-29T07:21:49;100689.80;;;20.20
69590;BMP180;56792;50.644;17.984;2023-01-29T07:24:21;100693.80;;;20.20
69590;BMP180;56792;50.644;17.984;2023-01-29T07:26:54;100694.80;;;20.20
69590;BMP180;56792;50.644;17.984;2023-01-29T07:29:27;100704.20;;;20.20
69590;BMP180;56792;50.644;17.984;2023-01-29T07:31:59;100699.40;;;20.20
69590;BMP180;56792;50.644;17.984;2023-01-29T07:34:31;100698.20;;;20.20
69590;BMP180;56792;50.644;17.984;2023-01-29T07:37:03;100703.80;;;20.20
69590;BMP180;56792;50.644;17.984;2023-01-29T07:39:36;100707.80;;;20.20
69590;BMP180;56792;50.644;17.984;2023-01-29T07:42:08;100705.40;;;20.20
69590;BMP180;56792;50.644;17.984;2023-01-29T07:44:41;100705.20;;;20.22
69590;BMP180;56792;50.644;17.984;2023-01-29T07:47:14;100703.80;;;20.30
69590;BMP180;56792;50.644;17.984;2023-01-29T07:49:46;100709.00;;;20.30
69590;BMP180;56792;50.644;17.984;2023-01-29T07:52:19;100718.20;;;20.30
69590;BMP180;56792;50.644;17.984;2023-01-29T07:54:51;100729.80;;;20.30
69590;BMP180;56792;50.644;17.984;2023-01-29T07:57:24;100731.00;;;20.30
69590;BMP180;56792;50.644;17.984;2023-01-29T07:59:57;100739.00;;;20.30
69590;BMP180;56792;50.644;17.984;2023-01-29T08:02:30;100742.00;;;20.30
69590;BMP180;56792;50.644;17.984;2023-01-29T08:05:02;100734.60;;;20.28
69590;BMP180;56792;50.644;17.984;2023-01-29T08:07:35;100737.20;;;20.24
69590;BMP180;56792;50.644;17.984;2023-01-29T08:10:10;100742.60;;;20.20
69590;BMP180;56792;50.644;17.984;2023-01-29T08:12:42;100746.80;;;20.20
69590;BMP180;56792;50.644;17.984;2023-01-29T08:15:15;100741.40;;;20.20
69590;BMP180;56792;50.644;17.984;2023-01-29T08:17:48;100749.80;;;20.22
69590;BMP180;56792;50.644;17.984;2023-01-29T08:20:22;100750.60;;;20.20
69590;BMP180;56792;50.644;17.984;2023-01-29T08:23:02;100743.40;;;20.22
69590;BMP180;56792;50.644;17.984;2023-01-29T08:25:36;100737.40;;;20.24
69590;BMP180;56792;50.644;17.984;2023-01-29T08:28:08;100732.40;;;20.24
69590;BMP180;56792;50.644;17.984;2023-01-29T08:30:42;100730.40;;;20.22
69590;BMP180;56792;50.644;17.984;2023-01-29T08:33:15;100728.40;;;20.24
69590;BMP180;56792;50.644;17.984;2023-01-29T08:35:51;100723.60;;;20.22
69590;BMP180;56792;50.644;17.984;2023-01-29T08:38:23;100722.40;;;20.22
69590;BMP180;56792;50.644;17.984;2023-01-29T08:40:56;100721.80;;;20.20
69590;BMP180;56792;50.644;17.984;2023-01-29T08:43:28;100722.20;;;20.20
69590;BMP180;56792;50.644;17.984;2023-01-29T08:46:02;100712.80;;;20.30
69590;BMP180;56792;50.644;17.984;2023-01-29T08:48:37;100704.00;;;20.28
69590;BMP180;56792;50.644;17.984;2023-01-29T08:51:11;100704.40;;;20.30
69590;BMP180;56792;50.644;17.984;2023-01-29T08:53:45;100707.60;;;20.30
69590;BMP180;56792;50.644;17.984;2023-01-29T08:56:17;100707.60;;;20.30
69590;BMP180;56792;50.644;17.984;2023-01-29T08:58:51;100709.60;;;20.30
69590;BMP180;56792;50.644;17.984;2023-01-29T09:01:27;100707.00;;;20.30
69590;BMP180;56792;50.644;17.984;2023-01-29T09:04:02;100706.40;;;20.30
69590;BMP180;56792;50.644;17.984;2023-01-29T09:06:37;100708.40;;;20.30
69590;BMP180;56792;50.644;17.984;2023-01-29T09:09:12;100708.20;;;20.30
69590;BMP180;56792;50.644;17.984;2023-01-29T09:11:45;100709.80;;;20.30
69590;BMP180;56792;50.644;17.984;2023-01-29T09:14:19;100709.40;;;20.32
69590;BMP180;56792;50.644;17.984;2023-01-29T09:16:52;100698.60;;;20.38
69590;BMP180;56792;50.644;17.984;2023-01-29T09:19:24;100695.60;;;20.40
69590;BMP180;56792;50.644;17.984;2023-01-29T09:21:56;100688.00;;;20.40
69590;BMP180;56792;50.644;17.984;2023-01-29T09:24:41;100687.00;;;20.40
69590;BMP180;56792;50.644;17.984;2023-01-29T09:27:15;100685.60;;;20.40
69590;BMP180;56792;50.644;17.984;2023-01-29T09:29:48;100682.20;;;20.40
69590;BMP180;56792;50.644;17.984;2023-01-29T09:32:21;100670.60;;;20.40
69590;BMP180;56792;50.644;17.984;2023-01-29T09:34:53;100664.60;;;20.44
69590;BMP180;56792;50.644;17.984;2023-01-29T09:37:26;100665.20;;;20.50
69590;BMP180;56792;50.644;17.984;2023-01-29T09:39:58;100660.20;;;20.50
69590;BMP180;56792;50.644;17.984;2023-01-29T09:42:39;100657.20;;;20.50
69590;BMP180;56792;50.644;17.984;2023-01-29T09:45:24;100651.20;;;20.60
69590;BMP180;56792;50.644;17.984;2023-01-29T09:48:00;100644.20;;;20.70
69590;BMP180;56792;50.644;17.984;2023-01-29T09:50:37;100641.20;;;20.70
69590;BMP180;56792;50.644;17.984;2023-01-29T09:53:20;100639.00;;;20.80
69590;BMP180;56792;50.644;17.984;2023-01-29T09:55:57;100633.80;;;20.90
69590;BMP180;56792;50.644;17.984;2023-01-29T09:58:34;100632.40;;;20.90
69590;BMP180;56792;50.644;17.984;2023-01-29T10:01:18;100626.80;;;20.90
69590;BMP180;56792;50.644;17.984;2023-01-29T10:04:48;100613.60;;;21.00
69590;BMP180;56792;50.644;17.984;2023-01-29T10:07:55;100605.80;;;21.00
69590;BMP180;56792;50.644;17.984;2023-01-29T10:10:48;100601.00;;;21.10
69590;BMP180;56792;50.644;17.984;2023-01-29T10:13:31;100604.00;;;21.10
69590;BMP180;56792;50.644;17.984;2023-01-29T10:16:34;100590.60;;;21.20
69590;BMP180;56792;50.644;17.984;2023-01-29T10:19:49;100587.20;;;21.30
69590;BMP180;56792;50.644;17.984;2023-01-29T10:23:02;100582.60;;;21.36
69590;BMP180;56792;50.644;17.984;2023-01-29T10:25:43;100577.20;;;21.44
69590;BMP180;56792;50.644;17.984;2023-01-29T10:28:22;100582.60;;;21.56
69590;BMP180;56792;50.644;17.984;2023-01-29T10:31:05;100575.00;;;21.70
69590;BMP180;56792;50.644;17.984;2023-01-29T10:33:44;100571.00;;;21.80
69590;BMP180;56792;50.644;17.984;2023-01-29T10:36:25;100573.60;;;21.84
69590;BMP180;56792;50.644;17.984;2023-01-29T10:38:58;100572.00;;;22.16
69590;BMP180;56792;50.644;17.984;2023-01-29T10:42:03;100573.80;;;22.30
69590;BMP180;56792;50.644;17.984;2023-01-29T10:44:53;100567.00;;;22.30
69590;BMP180;56792;50.644;17.984;2023-01-29T10:47:50;100561.80;;;22.30
69590;BMP180;56792;50.644;17.984;2023-01-29T10:50:46;100556.20;;;22.20
69590;BMP180;56792;50.644;17.984;2023-01-29T10:53:37;100556.80;;;22.30
69590;BMP180;56792;50.644;17.984;2023-01-29T10:56:46;100558.20;;;22.30
69590;BMP180;56792;50.644;17.984;2023-01-29T10:59:47;100547.80;;;22.30
69590;BMP180;56792;50.644;17.984;2023-01-29T11:02:24;100545.80;;;22.30
69590;BMP180;56792;50.644;17.984;2023-01-29T11:04:56;100540.60;;;22.30
69590;BMP180;56792;50.644;17.984;2023-01-29T11:07:29;100532.60;;;22.30
69590;BMP180;56792;50.644;17.984;2023-01-29T11:10:10;100527.20;;;22.30
69590;BMP180;56792;50.644;17.984;2023-01-29T11:12:46;100529.20;;;22.44
69590;BMP180;56792;50.644;17.984;2023-01-29T11:15:25;100532.00;;;22.60
69590;BMP180;56792;50.644;17.984;2023-01-29T11:18:08;100530.00;;;22.70
69590;BMP180;56792;50.644;17.984;2023-01-29T11:20:46;100532.80;;;22.60
69590;BMP180;56792;50.644;17.984;2023-01-29T11:23:34;100525.60;;;22.50
69590;BMP180;56792;50.644;17.984;2023-01-29T11:26:09;100529.20;;;22.40
69590;BMP180;56792;50.644;17.984;2023-01-29T11:28:45;100525.80;;;22.34
69590;BMP180;56792;50.644;17.984;2023-01-29T11:31:27;100527.80;;;22.20
69590;BMP180;56792;50.644;17.984;2023-01-29T11:34:12;100520.60;;;22.16
69590;BMP180;56792;50.644;17.984;2023-01-29T11:36:57;100514.00;;;22.10
69590;BMP180;56792;50.644;17.984;2023-01-29T11:39:32;100509.60;;;22.00
69590;BMP180;56792;50.644;17.984;2023-01-29T11:42:12;100507.40;;;21.90
69590;BMP180;56792;50.644;17.984;2023-01-29T11:44:57;100499.20;;;21.90
69590;BMP180;56792;50.644;17.984;2023-01-29T11:47:31;100497.00;;;21.80
69590;BMP180;56792;50.644;17.984;2023-01-29T11:50:05;100496.40;;;21.70
69590;BMP180;56792;50.644;17.984;2023-01-29T11:52:41;100494.00;;;21.70
69590;BMP180;56792;50.644;17.984;2023-01-29T11:55:23;100490.80;;;21.60
69590;BMP180;56792;50.644;17.984;2023-01-29T11:58:02;100490.40;;;21.60
69590;BMP180;56792;50.644;17.984;2023-01-29T12:00:40;100487.80;;;21.50
69590;BMP180;56792;50.644;17.984;2023-01-29T12:03:23;100476.60;;;21.48
69590;BMP180;56792;50.644;17.984;2023-01-29T12:06:04;100468.40;;;21.40
69590;BMP180;56792;50.644;17.984;2023-01-29T12:08:40;100469.20;;;21.40
69590;BMP180;56792;50.644;17.984;2023-01-29T12:11:23;100463.20;;;21.30
69590;BMP180;56792;50.644;17.984;2023-01-29T12:13:59;100459.60;;;21.30
69590;BMP180;56792;50.644;17.984;2023-01-29T12:16:38;100454.00;;;21.30
69590;BMP180;56792;50.644;17.984;2023-01-29T12:19:24;100459.20;;;21.30
69590;BMP180;56792;50.644;17.984;2023-01-29T12:22:07;100455.40;;;21.20
69590;BMP180;56792;50.644;17.984;2023-01-29T12:24:51;100454.20;;;21.20
69590;BMP180;56792;50.644;17.984;2023-01-29T12:27:34;100450.20;;;21.20
69590;BMP180;56792;50.644;17.984;2023-01-29T12:30:18;100447.60;;;21.20
69590;BMP180;56792;50.644;17.984;2023-01-29T12:33:13;100445.00;;;21.20
69590;BMP180;56792;50.644;17.984;2023-01-29T12:35:52;100442.60;;;21.10
69590;BMP180;56792;50.644;17.984;2023-01-29T12:38:29;100434.40;;;21.10
69590;BMP180;56792;50.644;17.984;2023-01-29T12:41:10;100423.80;;;21.10
69590;BMP180;56792;50.644;17.984;2023-01-29T12:43:59;100415.80;;;21.10
69590;BMP180;56792;50.644;17.984;2023-01-29T12:46:39;100407.20;;;21.02
69590;BMP180;56792;50.644;17.984;2023-01-29T12:49:21;100403.40;;;21.04
69590;BMP180;56792;50.644;17.984;2023-01-29T12:52:01;100407.00;;;21.00
69590;BMP180;56792;50.644;17.984;2023-01-29T12:54:48;100397.40;;;21.00
69590;BMP180;56792;50.644;17.984;2023-01-29T12:57:31;100398.40;;;21.00
69590;BMP180;56792;50.644;17.984;2023-01-29T13:00:15;100395.60;;;21.00
69590;BMP180;56792;50.644;17.984;2023-01-29T13:02:58;100389.40;;;21.00
69590;BMP180;56792;50.644;17.984;2023-01-29T13:05:38;100388.00;;;21.00
69590;BMP180;56792;50.644;17.984;2023-01-29T13:08:21;100389.40;;;20.92
69590;BMP180;56792;50.644;17.984;2023-01-29T13:10:59;100388.00;;;20.90
69590;BMP180;56792;50.644;17.984;2023-01-29T13:13:41;100381.60;;;20.90
69590;BMP180;56792;50.644;17.984;2023-01-29T13:16:26;100380.00;;;20.90
69590;BMP180;56792;50.644;17.984;2023-01-29T13:19:08;100377.80;;;20.90
69590;BMP180;56792;50.644;17.984;2023-01-29T13:21:47;100377.40;;;20.90
69590;BMP180;56792;50.644;17.984;2023-01-29T13:24:24;100382.60;;;20.90
69590;BMP180;56792;50.644;17.984;2023-01-29T13:26:59;100385.60;;;20.80
69590;BMP180;56792;50.644;17.984;2023-01-29T13:29:33;100385.00;;;20.80
69590;BMP180;56792;50.644;17.984;2023-01-29T13:32:08;100378.60;;;20.80
69590;BMP180;56792;50.644;17.984;2023-01-29T13:34:48;100375.20;;;20.80
69590;BMP180;56792;50.644;17.984;2023-01-29T13:37:30;100365.40;;;20.80
69590;BMP180;56792;50.644;17.984;2023-01-29T13:40:17;100361.60;;;20.80
69590;BMP180;56792;50.644;17.984;2023-01-29T13:42:52;100354.20;;;20.72
69590;BMP180;56792;50.644;17.984;2023-01-29T13:45:30;100359.60;;;20.70
69590;BMP180;56792;50.644;17.984;2023-01-29T13:48:24;100352.40;;;20.70
69590;BMP180;56792;50.644;17.984;2023-01-29T13:51:02;100351.00;;;20.70
69590;BMP180;56792;50.644;17.984;2023-01-29T13:53:39;100356.60;;;20.70
69590;BMP180;56792;50.644;17.984;2023-01-29T13:56:55;100358.80;;;20.70
69590;BMP180;56792;50.644;17.984;2023-01-29T13:59:56;100356.40;;;20.70
69590;BMP180;56792;50.644;17.984;2023-01-29T14:02:31;100358.00;;;20.70
69590;BMP180;56792;50.644;17.984;2023-01-29T14:05:41;100363.60;;;20.70
69590;BMP180;56792;50.644;17.984;2023-01-29T14:08:42;100364.00;;;20.70
69590;BMP180;56792;50.644;17.984;2023-01-29T14:11:41;100359.40;;;20.70
69590;BMP180;56792;50.644;17.984;2023-01-29T14:14:57;100351.60;;;20.70
69590;BMP180;56792;50.644;17.984;2023-01-29T14:17:32;100339.40;;;20.70
69590;BMP180;56792;50.644;17.984;2023-01-29T14:20:22;100331.80;;;20.70
69590;BMP180;56792;50.644;17.984;2023-01-29T14:23:00;100337.80;;;20.64
69590;BMP180;56792;50.644;17.984;2023-01-29T14:25:37;100339.00;;;20.64
69590;BMP180;56792;50.644;17.984;2023-01-29T14:28:25;100343.60;;;20.62
69590;BMP180;56792;50.644;17.984;2023-01-29T14:31:00;100346.00;;;20.60
69590;BMP180;56792;50.644;17.984;2023-01-29T14:33:38;100347.40;;;20.60
69590;BMP180;56792;50.644;17.984;2023-01-29T14:36:16;100351.60;;;20.64
69590;BMP180;56792;50.644;17.984;2023-01-29T14:38:54;100349.80;;;20.60
69590;BMP180;56792;50.644;17.984;2023-01-29T14:41:35;100350.60;;;20.60
69590;BMP180;56792;50.644;17.984;2023-01-29T14:50:58;100334.20;;;20.60
69590;BMP180;56792;50.644;17.984;2023-01-29T14:53:58;100343.00;;;20.60
69590;BMP180;56792;50.644;17.984;2023-01-29T14:56:39;100340.00;;;20.60
69590;BMP180;56792;50.644;17.984;2023-01-29T14:59:20;100345.40;;;20.60
69590;BMP180;56792;50.644;17.984;2023-01-29T15:02:00;100342.40;;;20.60